Time;durP1;ratioP1;P1;durP2;ratioP2;P2;SDS_P1;SDS_P2;PMS_P1;PMS_P2;Temp;Humidity;BMP_temperature;BMP_pressure;BME280_temperature;BME280_humidity;BME280_pressure;Samples;Min_cycle;Max_cycle;Signal;HPM_P1;HPM_P2
2023/02/01 00:00:29;117700064.00;392.33;66048304.00;82464.00;0.27;143.29;;;;;8.60;1.00;;;;;;2276050;61;1030;-87
2023/02/01 00:02:57;658994.00;2.20;1136.20;105273.00;0.35;182.67;;;;;8.60;1.00;;;;;;2276168;61;1001;-87
2023/02/01 00:05:24;451209.00;1.50;777.86;104677.00;0.35;181.64;;;;;8.70;1.00;;;;;;2276172;61;1274;-89
2023/02/01 00:07:51;388216.00;1.29;669.55;106117.00;0.35;184.13;;;;;8.80;1.00;;;;;;2276062;61;1119;-88
2023/02/01 00:10:19;311504.00;1.04;537.69;103594.00;0.35;179.78;;;;;8.80;1.00;;;;;;2276192;61;1071;-88
2023/02/01 00:12:45;148893.00;0.50;257.90;0.00;0.00;0.62;;;;;8.80;1.00;;;;;;2276105;61;1099;-90
2023/02/01 00:15:12;228938.00;0.76;395.72;3321.00;0.01;6.38;;;;;8.30;1.00;;;;;;2276087;61;1396;-87
2023/02/01 00:17:39;198540.00;0.66;343.41;0.00;0.00;0.62;;;;;8.50;1.00;;;;;;2276209;61;1119;-87
2023/02/01 00:20:09;218952.00;0.73;378.54;0.00;0.00;0.62;;;;;9.00;1.00;;;;;;2276077;61;2006;-88
2023/02/01 00:22:36;197562.00;0.66;341.73;0.00;0.00;0.62;;;;;9.00;1.00;;;;;;2276052;61;1001;-87
2023/02/01 00:25:04;135209.00;0.45;234.31;0.00;0.00;0.62;;;;;9.10;1.00;;;;;;2275962;61;1388;-89
2023/02/01 00:27:30;159385.00;0.53;275.98;0.00;0.00;0.62;;;;;9.30;1.00;;;;;;2276060;61;1557;-87
2023/02/01 00:29:57;124585.00;0.42;215.99;0.00;0.00;0.62;;;;;9.30;1.00;;;;;;2276099;61;1503;-87
2023/02/01 00:32:24;103732.00;0.35;180.01;0.00;0.00;0.62;;;;;9.50;1.00;;;;;;2276037;61;1027;-86
2023/02/01 00:34:51;147777.00;0.49;255.98;0.00;0.00;0.62;;;;;9.80;1.00;;;;;;2276056;61;1409;-87
2023/02/01 00:37:20;169704.00;0.57;293.76;0.00;0.00;0.62;;;;;9.90;1.00;;;;;;2276106;61;1090;-86
2023/02/01 00:39:46;617938.00;2.06;1065.20;63191.00;0.21;109.99;;;;;9.80;1.00;;;;;;2275954;61;2000;-87
2023/02/01 00:42:13;1451545.00;4.84;2552.27;149783.00;0.50;259.43;;;;;9.50;1.00;;;;;;2276105;61;1001;-86
2023/02/01 00:44:40;1460886.00;4.87;2569.73;91838.00;0.31;159.48;;;;;9.20;1.00;;;;;;2276034;61;1297;-88
2023/02/01 00:47:07;1631014.00;5.44;2892.16;50806.00;0.17;88.58;;;;;9.30;1.00;;;;;;2275995;61;1026;-89
2023/02/01 00:49:34;1599456.00;5.33;2831.70;96235.00;0.32;167.07;;;;;9.30;1.00;;;;;;2276101;61;1165;-87
2023/02/01 00:52:01;1809645.00;6.03;3240.51;167501.00;0.56;289.96;;;;;9.30;1.00;;;;;;2276098;61;1083;-87
2023/02/01 00:54:29;1957233.00;6.52;3536.88;135844.00;0.45;235.41;;;;;9.40;1.00;;;;;;2276021;61;1376;-88
2023/02/01 00:56:56;453942.00;1.51;782.56;103149.00;0.34;179.01;;;;;9.30;1.00;;;;;;2276072;61;967;-88
2023/02/01 00:59:23;426770.00;1.42;735.83;95746.00;0.32;166.23;;;;;9.30;1.00;;;;;;2275908;61;2000;-87
2023/02/01 01:01:50;352036.00;1.17;607.36;97915.00;0.33;169.97;;;;;9.40;1.00;;;;;;2275984;61;1581;-89
2023/02/01 01:04:17;127365.00;0.42;220.79;0.00;0.00;0.62;;;;;9.80;1.00;;;;;;2276209;61;2204;-88
2023/02/01 01:06:43;204499.00;0.68;353.67;0.00;0.00;0.62;;;;;9.80;1.00;;;;;;2276720;61;987;-87
2023/02/01 01:09:11;246026.00;0.82;425.12;0.00;0.00;0.62;;;;;9.70;1.00;;;;;;2276718;61;1013;-87
2023/02/01 01:11:40;223977.00;0.75;387.19;0.00;0.00;0.62;;;;;9.20;1.00;;;;;;2276564;61;1565;-87
2023/02/01 01:14:10;186139.00;0.62;322.06;0.00;0.00;0.62;;;;;9.20;1.00;;;;;;2276662;61;1373;-87
2023/02/01 01:16:37;200033.00;0.67;345.98;0.00;0.00;0.62;;;;;9.40;1.00;;;;;;2276743;61;983;-88
2023/02/01 01:19:04;163509.00;0.55;283.08;0.00;0.00;0.62;;;;;9.50;1.00;;;;;;2276604;61;2001;-87
2023/02/01 01:21:32;102119.00;0.34;177.23;0.00;0.00;0.62;;;;;9.70;1.00;;;;;;2276643;61;1725;-88
2023/02/01 01:23:59;225079.00;0.75;389.08;0.00;0.00;0.62;;;;;9.90;1.00;;;;;;2276617;61;1256;-87
2023/02/01 01:26:28;367851.00;1.23;634.54;0.00;0.00;0.62;;;;;9.80;1.00;;;;;;2276482;61;1527;-87
2023/02/01 01:28:58;131687.00;0.44;228.24;0.00;0.00;0.62;;;;;10.00;1.00;;;;;;2276636;61;2030;-88
2023/02/01 01:31:25;240447.00;0.80;415.52;0.00;0.00;0.62;;;;;9.80;1.00;;;;;;2276632;61;1168;-87
2023/02/01 01:33:54;126121.00;0.42;218.64;0.00;0.00;0.62;;;;;9.50;1.00;;;;;;2276446;61;1436;-87
2023/02/01 01:36:21;252298.00;0.84;435.90;0.00;0.00;0.62;;;;;9.30;1.00;;;;;;2276513;61;1537;-86
2023/02/01 01:38:49;235929.00;0.79;407.75;0.00;0.00;0.62;;;;;8.90;1.00;;;;;;2276684;61;1915;-89
2023/02/01 01:41:18;360428.00;1.20;621.78;23131.00;0.08;40.69;;;;;8.50;1.00;;;;;;2276509;61;1677;-87
2023/02/01 01:43:50;313874.00;1.05;541.77;0.00;0.00;0.62;;;;;8.80;1.00;;;;;;2276461;61;1306;-88
2023/02/01 01:46:20;1030024.00;3.43;1785.72;48841.00;0.16;85.18;;;;;9.00;1.00;;;;;;2276442;61;983;-89
2023/02/01 01:48:50;1165743.00;3.89;2028.40;74190.00;0.25;129.00;;;;;8.80;1.00;;;;;;2276507;61;1597;-89
2023/02/01 01:51:23;1456093.00;4.85;2560.77;102449.00;0.34;177.80;;;;;8.80;1.00;;;;;;2276531;61;977;-88
2023/02/01 01:53:59;1636629.00;5.46;2902.95;133388.00;0.44;231.17;;;;;8.90;1.00;;;;;;2276543;61;1603;-86
2023/02/01 01:56:28;1930516.00;6.44;3482.61;162739.00;0.54;281.76;;;;;9.20;1.00;;;;;;2276577;61;1573;-86
2023/02/01 01:58:56;1140869.00;3.80;1983.67;114710.00;0.38;198.96;;;;;9.30;1.00;;;;;;2276587;61;1907;-87
2023/02/01 02:01:24;516622.00;1.72;890.45;101072.00;0.34;175.42;;;;;9.50;1.00;;;;;;2276354;61;971;-89
2023/02/01 02:03:53;414126.00;1.38;714.09;99513.00;0.33;172.73;;;;;9.30;1.00;;;;;;2276542;61;1370;-87
2023/02/01 02:06:31;369860.00;1.23;638.00;94064.00;0.31;163.32;;;;;9.20;1.00;;;;;;2276510;61;936;-88
2023/02/01 02:08:58;365915.00;1.22;631.22;84385.00;0.28;146.61;;;;;8.80;1.00;;;;;;2276558;61;954;-87
2023/02/01 02:11:25;188564.00;0.63;326.24;0.00;0.00;0.62;;;;;9.10;1.00;;;;;;2276405;61;1098;-87
2023/02/01 02:13:55;130158.00;0.43;225.60;0.00;0.00;0.62;;;;;9.00;1.00;;;;;;2276406;61;1547;-89
2023/02/01 02:16:55;320471.00;1.07;553.11;0.00;0.00;0.62;;;;;9.20;1.00;;;;;;2276397;61;1442;-87
2023/02/01 02:20:06;538411.00;1.79;927.98;104769.00;0.35;181.80;;;;;9.20;1.00;;;;;;2276437;61;2010;-89
2023/02/01 02:23:06;806676.00;2.69;1392.77;26791.00;0.09;47.03;;;;;9.30;1.00;;;;;;2276511;61;2134;-87
2023/02/01 02:25:57;1286837.00;4.29;2248.04;27346.00;0.09;47.99;;;;;9.50;1.00;;;;;;2276487;61;1481;-88
2023/02/01 02:28:55;506223.00;1.69;872.54;101364.00;0.34;175.93;;;;;9.50;1.00;;;;;;2276494;61;1563;-87
2023/02/01 02:31:48;608159.00;2.03;1048.31;93032.00;0.31;161.54;;;;;8.90;1.00;;;;;;2275984;61;1341;-88
2023/02/01 02:34:26;1906929.00;6.36;3434.94;229494.00;0.76;396.68;;;;;9.00;1.00;;;;;;2275601;61;1633;-88
2023/02/01 02:37:05;1081886.00;3.61;1878.06;56523.00;0.19;98.47;;;;;8.90;1.00;;;;;;2276140;61;1373;-87
2023/02/01 02:39:54;224378.00;0.75;387.88;0.00;0.00;0.62;;;;;9.20;1.00;;;;;;2276398;61;2006;-87
2023/02/01 02:48:21;750012.00;2.50;1294.08;122350.00;0.41;212.14;;;;;9.40;1.00;;;;;;2279322;61;1456;-87
2023/02/01 03:04:58;335087.00;1.12;578.23;97167.00;0.32;168.68;;;;;9.50;1.00;;;;;;2276339;61;1328;-87
2023/02/01 03:07:54;203495.00;0.68;351.94;0.00;0.00;0.62;;;;;9.60;1.00;;;;;;2276372;61;1156;-88
2023/02/01 03:10:31;444012.00;1.48;765.48;98501.00;0.33;170.98;;;;;9.50;1.00;;;;;;2276288;61;1560;-88
2023/02/01 03:13:03;190265.00;0.63;329.16;0.00;0.00;0.62;;;;;9.30;1.00;;;;;;2276273;61;1721;-87
2023/02/01 03:15:36;154664.00;0.52;267.85;0.00;0.00;0.62;;;;;9.60;1.00;;;;;;2276348;61;1557;-88
2023/02/01 03:18:17;152588.00;0.51;264.27;0.00;0.00;0.62;;;;;9.60;1.00;;;;;;2276338;61;1074;-87
2023/02/01 03:20:48;166247.00;0.55;287.80;0.00;0.00;0.62;;;;;9.70;1.00;;;;;;2276224;61;2013;-87
2023/02/01 03:23:22;138873.00;0.46;240.63;0.00;0.00;0.62;;;;;9.90;1.00;;;;;;2276063;61;1597;-88
2023/02/01 03:25:53;136324.00;0.45;236.23;0.00;0.00;0.62;;;;;9.90;1.00;;;;;;2276317;61;2013;-88
2023/02/01 03:28:23;131637.00;0.44;228.15;0.00;0.00;0.62;;;;;10.00;1.00;;;;;;2276085;61;1564;-88
2023/02/01 03:30:51;228128.00;0.76;394.33;0.00;0.00;0.62;;;;;9.50;1.00;;;;;;2276256;61;1063;-87
2023/02/01 03:33:22;167369.00;0.56;289.73;0.00;0.00;0.62;;;;;9.40;1.00;;;;;;2276226;61;1269;-86
2023/02/01 03:35:56;350183.00;1.17;604.18;0.00;0.00;0.62;;;;;9.20;1.00;;;;;;2276263;61;1086;-86
2023/02/01 03:38:31;99050.00;0.33;171.93;0.00;0.00;0.62;;;;;8.80;1.00;;;;;;2276182;61;1036;-89
2023/02/01 03:41:06;160050.00;0.53;277.13;0.00;0.00;0.62;;;;;8.60;1.00;;;;;;2276308;61;1934;-88
2023/02/01 03:43:43;201679.00;0.67;348.81;0.00;0.00;0.62;;;;;8.30;1.00;;;;;;2276277;61;1399;-87
2023/02/01 03:46:18;183117.00;0.61;316.86;0.00;0.00;0.62;;;;;8.40;1.00;;;;;;2276223;61;1887;-87
2023/02/01 03:48:46;291069.00;0.97;502.57;0.00;0.00;0.62;;;;;8.00;1.00;;;;;;2276262;61;1907;-87
2023/02/01 03:51:14;365310.00;1.22;630.18;0.00;0.00;0.62;;;;;8.10;1.00;;;;;;2276203;61;1549;-87
2023/02/01 03:53:47;532150.00;1.77;917.20;0.00;0.00;0.62;;;;;8.00;1.00;;;;;;2276178;61;1368;-88
2023/02/01 03:56:19;228211.00;0.76;394.47;0.00;0.00;0.62;;;;;8.10;1.00;;;;;;2276208;61;1463;-87
2023/02/01 03:58:58;217681.00;0.73;376.35;0.00;0.00;0.62;;;;;8.10;1.00;;;;;;2276139;61;1610;-87
2023/02/01 04:01:27;351510.00;1.17;606.46;0.00;0.00;0.62;;;;;8.10;1.00;;;;;;2276039;61;1995;-87
2023/02/01 04:03:56;236087.00;0.79;408.02;0.00;0.00;0.62;;;;;7.90;1.00;;;;;;2276120;61;1421;-87
2023/02/01 04:06:27;487703.00;1.63;840.66;49247.00;0.16;85.88;;;;;8.00;1.00;;;;;;2276161;61;1448;-88
2023/02/01 04:08:58;298254.00;0.99;514.92;0.00;0.00;0.62;;;;;8.10;1.00;;;;;;2276215;61;995;-88
2023/02/01 04:11:27;252184.00;0.84;435.71;0.00;0.00;0.62;;;;;8.30;1.00;;;;;;2276177;61;1497;-88
2023/02/01 04:13:54;185440.00;0.62;320.86;0.00;0.00;0.62;;;;;8.20;1.00;;;;;;2276115;61;1568;-88
2023/02/01 04:16:26;233441.00;0.78;403.47;0.00;0.00;0.62;;;;;8.00;1.00;;;;;;2276114;61;1143;-89
2023/02/01 04:18:56;330126.00;1.10;569.70;0.00;0.00;0.62;;;;;8.10;1.00;;;;;;2276105;61;1418;-87
2023/02/01 04:21:22;315958.00;1.05;545.35;0.00;0.00;0.62;;;;;7.80;1.00;;;;;;2276073;61;1939;-87
2023/02/01 04:23:50;274055.00;0.91;473.32;0.00;0.00;0.62;;;;;8.00;1.00;;;;;;2276106;61;1371;-86
2023/02/01 04:26:22;224445.00;0.75;387.99;0.00;0.00;0.62;;;;;8.30;1.00;;;;;;2276126;61;948;-86
2023/02/01 04:28:49;198860.00;0.66;343.96;0.00;0.00;0.62;;;;;8.10;1.00;;;;;;2275942;61;1466;-87
2023/02/01 04:31:17;337932.00;1.13;583.12;0.00;0.00;0.62;;;;;8.00;1.00;;;;;;2276112;61;990;-88
2023/02/01 04:33:44;377952.00;1.26;651.91;0.00;0.00;0.62;;;;;7.90;1.00;;;;;;2275962;61;1447;-87
2023/02/01 04:36:14;349469.00;1.16;602.95;0.00;0.00;0.62;;;;;7.90;1.00;;;;;;2276207;61;1028;-88
2023/02/01 04:38:41;273359.00;0.91;472.12;0.00;0.00;0.62;;;;;8.00;1.00;;;;;;2276129;61;1107;-88
2023/02/01 04:41:08;179137.00;0.60;310.00;0.00;0.00;0.62;;;;;8.10;1.00;;;;;;2276787;61;1985;-87
2023/02/01 04:43:38;217486.00;0.72;376.02;0.00;0.00;0.62;;;;;8.30;1.00;;;;;;2276731;61;1439;-89
2023/02/01 04:46:05;345410.00;1.15;595.97;0.00;0.00;0.62;;;;;8.10;1.00;;;;;;2276771;61;881;-89
2023/02/01 04:48:32;250667.00;0.84;433.10;0.00;0.00;0.62;;;;;7.90;1.00;;;;;;2276766;61;926;-88
2023/02/01 04:50:59;315470.00;1.05;544.51;0.00;0.00;0.62;;;;;7.90;1.00;;;;;;2276788;61;924;-88
2023/02/01 04:53:26;291399.00;0.97;503.13;0.00;0.00;0.62;;;;;8.20;1.00;;;;;;2276821;61;1273;-88
2023/02/01 04:55:53;223752.00;0.75;386.80;0.00;0.00;0.62;;;;;7.80;1.00;;;;;;2276792;61;1437;-88
2023/02/01 04:58:20;259840.00;0.87;448.87;0.00;0.00;0.62;;;;;7.60;1.00;;;;;;2276801;61;1120;-88
2023/02/01 05:00:49;228538.00;0.76;395.03;0.00;0.00;0.62;;;;;7.60;1.00;;;;;;2276760;61;1915;-87
2023/02/01 05:03:17;205530.00;0.69;355.44;0.00;0.00;0.62;;;;;7.70;1.00;;;;;;2276489;61;1028;-88
2023/02/01 05:05:44;742660.00;2.48;1281.30;0.00;0.00;0.62;;;;;7.50;1.00;;;;;;2276406;61;955;-88
2023/02/01 05:08:11;289057.00;0.96;499.11;0.00;0.00;0.62;;;;;7.60;1.00;;;;;;2276705;61;1675;-87
2023/02/01 05:10:38;223552.00;0.75;386.46;0.00;0.00;0.62;;;;;7.60;1.00;;;;;;2276603;61;1700;-88
2023/02/01 05:15:51;184188.00;0.61;318.70;0.00;0.00;0.62;;;;;7.60;1.00;;;;;;2276676;61;633;-87
2023/02/01 05:18:18;220573.00;0.74;381.33;0.00;0.00;0.62;;;;;7.90;1.00;;;;;;2276743;61;1116;-89
2023/02/01 05:20:45;198204.00;0.66;342.83;0.00;0.00;0.62;;;;;7.80;1.00;;;;;;2276665;61;1992;-89
2023/02/01 05:23:12;507176.00;1.69;874.18;39558.00;0.13;69.12;;;;;7.70;1.00;;;;;;2276623;61;1087;-88
2023/02/01 05:25:39;305695.00;1.02;527.71;0.00;0.00;0.62;;;;;7.70;1.00;;;;;;2276613;61;1399;-88
2023/02/01 05:28:06;311459.00;1.04;537.62;0.00;0.00;0.62;;;;;7.60;1.00;;;;;;2276566;61;1123;-88
2023/02/01 05:30:34;346211.00;1.15;597.35;0.00;0.00;0.62;;;;;7.70;1.00;;;;;;2276643;61;993;-88
2023/02/01 05:33:03;387233.00;1.29;667.86;0.00;0.00;0.62;;;;;7.40;1.00;;;;;;2276572;61;1110;-88
2023/02/01 05:35:31;274850.00;0.92;474.68;0.00;0.00;0.62;;;;;7.50;1.00;;;;;;2276616;61;1367;-87
2023/02/01 05:37:58;299027.00;1.00;516.25;0.00;0.00;0.62;;;;;7.80;1.00;;;;;;2276706;61;943;-89
2023/02/01 05:40:24;238782.00;0.80;412.66;0.00;0.00;0.62;;;;;8.20;1.00;;;;;;2276618;61;1998;-88
2023/02/01 05:42:51;258725.00;0.86;446.96;0.00;0.00;0.62;;;;;8.20;1.00;;;;;;2276555;61;1540;-87
2023/02/01 05:45:18;255073.00;0.85;440.68;0.00;0.00;0.62;;;;;8.30;1.00;;;;;;2276553;61;1391;-87
2023/02/01 05:47:45;172721.00;0.58;298.95;0.00;0.00;0.62;;;;;8.30;1.00;;;;;;2276658;61;1060;-89
2023/02/01 05:50:13;261265.00;0.87;451.32;0.00;0.00;0.62;;;;;8.10;1.00;;;;;;2276348;61;1434;-88
2023/02/01 05:52:40;205407.00;0.68;355.23;0.00;0.00;0.62;;;;;8.30;1.00;;;;;;2276410;61;1656;-88
2023/02/01 05:55:08;400463.00;1.33;690.60;0.00;0.00;0.62;;;;;8.30;1.00;;;;;;2276460;61;1558;-88
2023/02/01 05:57:35;281406.00;0.94;485.95;0.00;0.00;0.62;;;;;8.30;1.00;;;;;;2276592;61;1035;-88
2023/02/01 06:00:02;208670.00;0.70;360.85;0.00;0.00;0.62;;;;;8.40;1.00;;;;;;2276560;61;1988;-88
2023/02/01 06:02:29;146650.00;0.49;254.03;0.00;0.00;0.62;;;;;8.30;1.00;;;;;;2276551;61;1505;-88
2023/02/01 06:04:56;187034.00;0.62;323.60;0.00;0.00;0.62;;;;;8.50;1.00;;;;;;2276407;61;1393;-89
2023/02/01 06:07:24;243766.00;0.81;421.23;0.00;0.00;0.62;;;;;8.60;1.00;;;;;;2276593;61;1003;-88
2023/02/01 06:09:51;202520.00;0.68;350.26;0.00;0.00;0.62;;;;;8.70;1.00;;;;;;2276479;61;1011;-88
2023/02/01 06:12:18;243968.00;0.81;421.58;0.00;0.00;0.62;;;;;8.40;1.00;;;;;;2276303;61;1024;-89
2023/02/01 06:14:45;237690.00;0.79;410.78;0.00;0.00;0.62;;;;;8.40;1.00;;;;;;2276529;61;1381;-89
2023/02/01 06:17:12;289990.00;0.97;500.71;0.00;0.00;0.62;;;;;8.50;1.00;;;;;;2276303;61;1180;-90
2023/02/01 06:19:40;201630.00;0.67;348.73;0.00;0.00;0.62;;;;;8.30;1.00;;;;;;2276402;61;1091;-89
2023/02/01 06:22:07;346105.00;1.15;597.17;0.00;0.00;0.62;;;;;8.30;1.00;;;;;;2276517;61;2005;-89
2023/02/01 06:24:35;214535.00;0.72;370.94;0.00;0.00;0.62;;;;;8.20;1.00;;;;;;2276492;61;1395;-90
2023/02/01 06:27:02;282314.00;0.94;487.52;0.00;0.00;0.62;;;;;8.20;1.00;;;;;;2276489;61;995;-88
2023/02/01 06:29:29;177177.00;0.59;306.63;0.00;0.00;0.62;;;;;7.90;1.00;;;;;;2276443;61;1549;-89
2023/02/01 06:31:55;214846.00;0.72;371.47;0.00;0.00;0.62;;;;;8.30;1.00;;;;;;2276449;61;1082;-89
2023/02/01 06:34:23;141359.00;0.47;244.91;0.00;0.00;0.62;;;;;8.50;1.00;;;;;;2276418;61;1300;-88
2023/02/01 06:36:50;223987.00;0.75;387.20;0.00;0.00;0.62;;;;;8.60;1.00;;;;;;2276467;61;1119;-89
2023/02/01 06:39:17;173358.00;0.58;300.05;0.00;0.00;0.62;;;;;8.60;1.00;;;;;;2276528;61;1066;-88
2023/02/01 06:41:47;139271.00;0.46;241.31;0.00;0.00;0.62;;;;;8.50;1.00;;;;;;2276444;61;2001;-88
2023/02/01 06:44:14;204505.00;0.68;353.68;0.00;0.00;0.62;;;;;8.80;1.00;;;;;;2276372;61;1655;-88
2023/02/01 06:46:41;462307.00;1.54;796.95;0.00;0.00;0.62;;;;;8.60;1.00;;;;;;2276481;61;989;-87
2023/02/01 06:54:03;632261.00;2.11;1089.96;0.00;0.00;0.62;;;;;8.30;1.00;;;;;;2274523;61;1338;-90
2023/02/01 07:33:52;667000.00;2.22;1150.06;0.00;0.00;0.62;;;;;8.00;1.00;;;;;;2509036;55;3569;31
2023/02/01 08:21:15;694772.00;2.32;1198.17;0.00;0.00;0.62;;;;;8.70;1.00;;;;;;2275395;61;1861;-89
2023/02/01 08:43:48;876978.00;2.92;1515.72;0.00;0.00;0.62;;;;;8.00;1.00;;;;;;2274759;61;1291;-89
2023/02/01 08:48:51;557780.00;1.86;961.37;9980.00;0.03;17.91;;;;;8.20;1.00;;;;;;2512233;40;3627;31
2023/02/01 08:56:22;737990.00;2.46;1273.18;0.00;0.00;0.62;;;;;8.40;1.00;;;;;;2279453;61;1016;-89
2023/02/01 09:01:19;654171.00;2.18;1127.85;0.00;0.00;0.62;;;;;8.50;1.00;;;;;;2275232;61;1879;-91
2023/02/01 09:13:47;877838.00;2.93;1517.23;53007.00;0.18;92.39;;;;;8.60;1.00;;;;;;2510212;40;3612;31
2023/02/01 09:16:14;766477.00;2.55;1322.72;19294.00;0.06;34.05;;;;;8.50;1.00;;;;;;2508625;55;3677;31
2023/02/01 09:18:42;759716.00;2.53;1310.96;0.00;0.00;0.62;;;;;8.20;1.00;;;;;;2505478;40;3525;31
2023/02/01 09:43:48;555770.00;1.85;957.91;0.00;0.00;0.62;;;;;8.60;1.00;;;;;;2508816;55;3559;31
2023/02/01 09:53:54;806591.00;2.69;1392.62;0.00;0.00;0.62;;;;;9.00;1.00;;;;;;2509272;40;3434;31
2023/02/01 10:16:17;642283.00;2.14;1107.29;0.00;0.00;0.62;;;;;9.10;1.00;;;;;;2510745;40;3392;31
2023/02/01 10:26:19;1477800.00;4.93;2601.42;155209.00;0.52;268.78;;;;;9.00;1.00;;;;;;2510387;55;3622;31
2023/02/01 10:28:47;1259775.00;4.20;2198.68;102378.00;0.34;177.68;;;;;8.80;1.00;;;;;;2519729;40;3567;31
2023/02/01 10:31:16;1150624.00;3.84;2001.20;100497.00;0.33;174.43;;;;;8.90;1.00;;;;;;2511179;40;3558;31
2023/02/01 10:33:44;1273161.00;4.24;2223.07;177439.00;0.59;307.08;;;;;9.20;1.00;;;;;;2510752;40;3542;31
2023/02/01 10:53:39;779635.00;2.60;1345.63;105816.00;0.35;183.61;;;;;9.40;1.00;;;;;;2510314;40;3471;31
2023/02/01 10:56:07;635861.00;2.12;1096.18;99895.00;0.33;173.39;;;;;9.60;1.00;;;;;;2517549;55;3637;31
2023/02/01 11:11:05;736182.00;2.45;1270.04;37124.00;0.12;64.91;;;;;10.00;1.00;;;;;;2273895;61;1167;-89
2023/02/01 11:18:32;836352.00;2.79;1444.60;22401.00;0.07;39.43;;;;;9.40;1.00;;;;;;2509814;40;3488;31
2023/02/01 11:36:13;756469.00;2.52;1305.31;0.00;0.00;0.62;;;;;9.60;1.00;;;;;;2274518;61;1091;-91
2023/02/01 11:41:14;803320.00;2.68;1386.91;0.00;0.00;0.62;;;;;9.50;1.00;;;;;;2270389;61;1879;-89
2023/02/01 11:51:23;714723.00;2.38;1232.78;0.00;0.00;0.62;;;;;9.50;1.00;;;;;;2509031;40;3573;31
2023/02/01 12:29:22;1172178.00;3.91;2040.00;115626.00;0.39;200.54;;;;;9.50;1.00;;;;;;2507972;55;3549;31
2023/02/01 12:44:25;728875.00;2.43;1257.35;0.00;0.00;0.62;;;;;9.50;1.00;;;;;;2509251;40;3479;31
2023/02/01 12:46:53;765116.00;2.55;1320.35;36873.00;0.12;64.48;;;;;9.20;1.00;;;;;;2508679;40;3554;31
2023/02/01 12:51:55;604136.00;2.01;1041.36;0.00;0.00;0.62;;;;;9.30;1.00;;;;;;2512886;55;3564;31
2023/02/01 12:59:28;512654.00;1.71;883.61;0.00;0.00;0.62;;;;;9.70;1.00;;;;;;2508218;55;3525;31
2023/02/01 13:04:30;616774.00;2.06;1063.19;0.00;0.00;0.62;;;;;9.70;1.00;;;;;;2510368;40;3444;31
2023/02/01 13:59:52;866206.00;2.89;1496.84;24772.00;0.08;43.53;;;;;10.00;1.00;;;;;;2274742;61;1331;-91
2023/02/01 14:07:23;831121.00;2.77;1435.45;104550.00;0.35;181.43;;;;;9.90;1.00;;;;;;2275121;61;996;-90
2023/02/01 14:09:50;794318.00;2.65;1371.22;7655.00;0.03;13.89;;;;;9.90;1.00;;;;;;2264583;61;952;-92
2023/02/01 14:14:51;764445.00;2.55;1319.18;0.00;0.00;0.62;;;;;9.50;1.00;;;;;;2274899;61;1377;-92
2023/02/01 14:22:35;1001043.00;3.34;1734.32;55551.00;0.19;96.79;;;;;9.10;1.00;;;;;;2274956;61;1874;-90
2023/02/01 16:22:52;818857.00;2.73;1414.03;0.00;0.00;0.62;;;;;9.90;1.00;;;;;;2274439;61;1942;-92
2023/02/01 16:27:49;850304.00;2.83;1469.00;0.00;0.00;0.62;;;;;9.50;1.00;;;;;;2274509;61;1296;-91
2023/02/01 16:32:54;1097535.00;3.66;1906.02;64474.00;0.21;112.21;;;;;9.40;1.00;;;;;;2270285;61;1331;-91
2023/02/01 16:37:52;740731.00;2.47;1277.95;27859.00;0.09;48.88;;;;;9.50;1.00;;;;;;2275071;61;1307;-89
2023/02/01 16:40:21;319654.00;1.07;551.70;0.00;0.00;0.62;;;;;9.90;1.00;;;;;;2273485;61;1083;-91
2023/02/01 16:42:51;207301.00;0.69;358.49;0.00;0.00;0.62;;;;;9.90;1.00;;;;;;2273379;61;2001;-92
2023/02/01 16:52:47;972736.00;3.24;1684.24;0.00;0.00;0.62;;;;;9.30;1.00;;;;;;2275119;61;971;-91
2023/02/01 16:55:18;643773.00;2.15;1109.86;22662.00;0.08;39.88;;;;;9.40;1.00;;;;;;2273074;61;1505;-90
2023/02/01 17:23:02;661467.00;2.20;1140.48;0.00;0.00;0.62;;;;;9.50;1.00;;;;;;2508067;55;3615;31
2023/02/01 17:25:31;996632.00;3.32;1726.51;54376.00;0.18;94.75;;;;;9.40;1.00;;;;;;2512849;55;3958;31
2023/02/01 17:35:26;516665.00;1.72;890.52;0.00;0.00;0.62;;;;;9.60;1.00;;;;;;2518149;55;3521;31
2023/02/01 17:58:04;709790.00;2.37;1224.22;0.00;0.00;0.62;;;;;8.80;1.00;;;;;;2507264;55;3573;31
2023/02/01 20:15:08;712109.00;2.37;1228.24;0.00;0.00;0.62;;;;;7.80;1.00;;;;;;2266446;61;1285;-88
2023/02/01 21:51:15;927150.00;3.09;1603.86;0.00;0.00;0.62;;;;;8.80;1.00;;;;;;2274772;61;974;-89
2023/02/01 21:56:13;122335152.00;407.78;74170512.00;95256.00;0.32;165.38;;;;;8.80;1.00;;;;;;2274770;61;1315;-91
2023/02/01 22:26:25;732541.00;2.44;1263.72;38737.00;0.13;67.70;;;;;8.50;1.00;;;;;;2274587;61;1056;-91
2023/02/01 23:01:48;1500671.00;5.00;2644.38;98933.00;0.33;171.73;;;;;9.10;1.00;;;;;;2506611;55;3586;31
2023/02/01 23:19:08;1795660.00;5.99;3212.84;0.00;0.00;0.62;;;;;8.60;1.00;;;;;;2274670;61;1023;-89
2023/02/01 23:39:13;874141.00;2.91;1510.75;0.00;0.00;0.62;;;;;8.50;1.00;;;;;;2278887;61;987;-89
2023/02/01 23:59:15;800932.00;2.67;1382.75;4886.00;0.02;9.09;;;;;8.50;1.00;;;;;;2502767;40;3431;31
